sensor_id;sensor_type;location;lat;lon;timestamp;temperature;humidity
77305;DHT22;66364;52.622;7.746;2023-03-05T00:01:30;3.30;99.90
77305;DHT22;66364;52.622;7.746;2023-03-05T00:03:31;3.30;99.90
77305;DHT22;66364;52.622;7.746;2023-03-05T00:05:32;3.70;99.90
77305;DHT22;66364;52.622;7.746;2023-03-05T00:07:33;3.50;99.90
77305;DHT22;66364;52.622;7.746;2023-03-05T00:09:34;3.60;99.90
77305;DHT22;66364;52.622;7.746;2023-03-05T00:11:35;3.40;99.90
77305;DHT22;66364;52.622;7.746;2023-03-05T00:13:36;3.50;99.90
77305;DHT22;66364;52.622;7.746;2023-03-05T00:15:40;3.60;99.90
77305;DHT22;66364;52.622;7.746;2023-03-05T00:17:41;3.60;99.90
77305;DHT22;66364;52.622;7.746;2023-03-05T00:19:42;3.50;99.90
77305;DHT22;66364;52.622;7.746;2023-03-05T00:21:48;3.40;99.90
77305;DHT22;66364;52.622;7.746;2023-03-05T00:23:50;3.50;99.90
77305;DHT22;66364;52.622;7.746;2023-03-05T00:25:51;3.50;99.90
77305;DHT22;66364;52.622;7.746;2023-03-05T00:27:52;3.60;99.90
77305;DHT22;66364;52.622;7.746;2023-03-05T00:29:53;3.70;99.90
77305;DHT22;66364;52.622;7.746;2023-03-05T00:31:54;3.70;99.90
77305;DHT22;66364;52.622;7.746;2023-03-05T00:33:58;3.30;99.90
77305;DHT22;66364;52.622;7.746;2023-03-05T00:35:59;3.50;99.90
77305;DHT22;66364;52.622;7.746;2023-03-05T00:38:01;3.10;99.90
77305;DHT22;66364;52.622;7.746;2023-03-05T00:40:03;3.40;99.90
77305;DHT22;66364;52.622;7.746;2023-03-05T00:42:04;3.60;99.90
77305;DHT22;66364;52.622;7.746;2023-03-05T00:44:05;3.00;99.90
77305;DHT22;66364;52.622;7.746;2023-03-05T00:46:06;3.20;99.90
77305;DHT22;66364;52.622;7.746;2023-03-05T00:48:08;3.10;99.90
77305;DHT22;66364;52.622;7.746;2023-03-05T00:50:15;3.10;99.90
77305;DHT22;66364;52.622;7.746;2023-03-05T00:52:16;3.20;99.90
77305;DHT22;66364;52.622;7.746;2023-03-05T00:54:17;3.20;99.90
77305;DHT22;66364;52.622;7.746;2023-03-05T00:56:19;3.10;99.90
77305;DHT22;66364;52.622;7.746;2023-03-05T00:58:22;3.10;99.90
77305;DHT22;66364;52.622;7.746;2023-03-05T01:00:23;3.30;99.90
77305;DHT22;66364;52.622;7.746;2023-03-05T01:02:24;3.10;99.90
77305;DHT22;66364;52.622;7.746;2023-03-05T01:04:24;3.40;99.90
77305;DHT22;66364;52.622;7.746;2023-03-05T01:06:26;3.10;99.90
77305;DHT22;66364;52.622;7.746;2023-03-05T01:08:27;3.30;99.90
77305;DHT22;66364;52.622;7.746;2023-03-05T01:10:34;3.40;99.90
77305;DHT22;66364;52.622;7.746;2023-03-05T01:12:34;3.20;99.90
77305;DHT22;66364;52.622;7.746;2023-03-05T01:14:35;3.00;99.90
77305;DHT22;66364;52.622;7.746;2023-03-05T01:16:36;3.30;99.90
77305;DHT22;66364;52.622;7.746;2023-03-05T01:18:37;3.10;99.90
77305;DHT22;66364;52.622;7.746;2023-03-05T01:20:38;3.50;99.90
77305;DHT22;66364;52.622;7.746;2023-03-05T01:22:39;3.40;99.90
77305;DHT22;66364;52.622;7.746;2023-03-05T01:24:40;3.30;99.90
77305;DHT22;66364;52.622;7.746;2023-03-05T01:26:40;3.20;99.90
77305;DHT22;66364;52.622;7.746;2023-03-05T01:28:41;3.30;99.90
77305;DHT22;66364;52.622;7.746;2023-03-05T01:30:42;3.20;99.90
77305;DHT22;66364;52.622;7.746;2023-03-05T01:32:42;3.30;99.90
77305;DHT22;66364;52.622;7.746;2023-03-05T01:34:43;3.40;99.90
77305;DHT22;66364;52.622;7.746;2023-03-05T01:36:43;3.30;99.90
77305;DHT22;66364;52.622;7.746;2023-03-05T01:38:45;3.40;99.90
77305;DHT22;66364;52.622;7.746;2023-03-05T01:40:46;3.30;99.90
77305;DHT22;66364;52.622;7.746;2023-03-05T01:42:48;3.30;99.90
77305;DHT22;66364;52.622;7.746;2023-03-05T01:45:09;3.00;99.90
77305;DHT22;66364;52.622;7.746;2023-03-05T01:47:10;3.00;99.90
77305;DHT22;66364;52.622;7.746;2023-03-05T01:51:24;3.10;99.90
77305;DHT22;66364;52.622;7.746;2023-03-05T01:53:29;3.20;99.90
77305;DHT22;66364;52.622;7.746;2023-03-05T01:55:32;2.90;99.90
77305;DHT22;66364;52.622;7.746;2023-03-05T01:57:43;3.30;99.90
77305;DHT22;66364;52.622;7.746;2023-03-05T01:59:47;2.90;99.90
77305;DHT22;66364;52.622;7.746;2023-03-05T02:01:50;3.30;99.90
77305;DHT22;66364;52.622;7.746;2023-03-05T02:03:53;3.00;99.90
77305;DHT22;66364;52.622;7.746;2023-03-05T02:05:53;3.20;99.90
77305;DHT22;66364;52.622;7.746;2023-03-05T02:07:55;3.10;99.90
77305;DHT22;66364;52.622;7.746;2023-03-05T02:09:56;3.30;99.90
77305;DHT22;66364;52.622;7.746;2023-03-05T02:11:57;3.00;99.90
77305;DHT22;66364;52.622;7.746;2023-03-05T02:13:58;3.10;99.90
77305;DHT22;66364;52.622;7.746;2023-03-05T02:16:02;3.10;99.90
77305;DHT22;66364;52.622;7.746;2023-03-05T02:18:07;3.20;99.90
77305;DHT22;66364;52.622;7.746;2023-03-05T02:20:12;3.10;99.90
77305;DHT22;66364;52.622;7.746;2023-03-05T02:22:14;3.10;99.90
77305;DHT22;66364;52.622;7.746;2023-03-05T02:24:17;3.20;99.90
77305;DHT22;66364;52.622;7.746;2023-03-05T02:26:19;3.10;99.90
77305;DHT22;66364;52.622;7.746;2023-03-05T02:28:37;2.90;99.90
77305;DHT22;66364;52.622;7.746;2023-03-05T02:30:36;3.00;99.90
77305;DHT22;66364;52.622;7.746;2023-03-05T02:32:37;2.90;99.90
77305;DHT22;66364;52.622;7.746;2023-03-05T02:34:44;3.10;99.90
77305;DHT22;66364;52.622;7.746;2023-03-05T02:36:44;3.20;99.90
77305;DHT22;66364;52.622;7.746;2023-03-05T02:38:45;3.10;99.90
77305;DHT22;66364;52.622;7.746;2023-03-05T02:40:46;2.80;99.90
77305;DHT22;66364;52.622;7.746;2023-03-05T02:42:47;3.20;99.90
77305;DHT22;66364;52.622;7.746;2023-03-05T02:44:48;2.90;99.90
77305;DHT22;66364;52.622;7.746;2023-03-05T02:46:48;3.00;99.90
77305;DHT22;66364;52.622;7.746;2023-03-05T02:48:49;2.70;99.90
77305;DHT22;66364;52.622;7.746;2023-03-05T02:50:50;2.90;99.90
77305;DHT22;66364;52.622;7.746;2023-03-05T02:52:51;2.90;99.90
77305;DHT22;66364;52.622;7.746;2023-03-05T02:54:52;2.60;99.90
77305;DHT22;66364;52.622;7.746;2023-03-05T02:56:52;3.10;99.90
77305;DHT22;66364;52.622;7.746;2023-03-05T02:58:53;3.00;99.90
77305;DHT22;66364;52.622;7.746;2023-03-05T03:00:54;2.90;99.90
77305;DHT22;66364;52.622;7.746;2023-03-05T03:02:54;2.60;99.90
77305;DHT22;66364;52.622;7.746;2023-03-05T03:04:55;2.90;99.90
77305;DHT22;66364;52.622;7.746;2023-03-05T03:06:56;2.80;99.90
77305;DHT22;66364;52.622;7.746;2023-03-05T03:08:57;2.80;99.90
77305;DHT22;66364;52.622;7.746;2023-03-05T03:11:03;2.80;99.90
77305;DHT22;66364;52.622;7.746;2023-03-05T03:13:04;2.80;99.90
77305;DHT22;66364;52.622;7.746;2023-03-05T03:15:06;3.00;99.90
77305;DHT22;66364;52.622;7.746;2023-03-05T03:17:16;2.80;99.90
77305;DHT22;66364;52.622;7.746;2023-03-05T03:19:17;2.90;99.90
77305;DHT22;66364;52.622;7.746;2023-03-05T03:21:23;2.70;99.90
77305;DHT22;66364;52.622;7.746;2023-03-05T03:23:25;2.80;99.90
77305;DHT22;66364;52.622;7.746;2023-03-05T03:25:26;2.70;99.90
77305;DHT22;66364;52.622;7.746;2023-03-05T03:27:27;3.00;99.90
77305;DHT22;66364;52.622;7.746;2023-03-05T03:29:28;2.80;99.90
77305;DHT22;66364;52.622;7.746;2023-03-05T03:31:28;3.00;99.90
77305;DHT22;66364;52.622;7.746;2023-03-05T03:33:30;2.90;99.90
77305;DHT22;66364;52.622;7.746;2023-03-05T03:35:31;2.90;99.90
77305;DHT22;66364;52.622;7.746;2023-03-05T03:37:32;3.10;99.90
77305;DHT22;66364;52.622;7.746;2023-03-05T03:39:33;2.80;99.90
77305;DHT22;66364;52.622;7.746;2023-03-05T03:41:35;2.90;99.90
77305;DHT22;66364;52.622;7.746;2023-03-05T03:43:36;2.70;99.90
77305;DHT22;66364;52.622;7.746;2023-03-05T03:45:42;2.80;99.90
77305;DHT22;66364;52.622;7.746;2023-03-05T03:47:43;2.90;99.90
77305;DHT22;66364;52.622;7.746;2023-03-05T03:49:44;3.00;99.90
77305;DHT22;66364;52.622;7.746;2023-03-05T03:51:45;2.60;99.90
77305;DHT22;66364;52.622;7.746;2023-03-05T03:53:46;2.90;99.90
77305;DHT22;66364;52.622;7.746;2023-03-05T03:55:47;2.80;99.90
77305;DHT22;66364;52.622;7.746;2023-03-05T03:57:47;2.80;99.90
77305;DHT22;66364;52.622;7.746;2023-03-05T03:59:48;2.90;99.90
77305;DHT22;66364;52.622;7.746;2023-03-05T04:01:49;2.90;99.90
77305;DHT22;66364;52.622;7.746;2023-03-05T04:03:50;3.00;99.90
77305;DHT22;66364;52.622;7.746;2023-03-05T04:05:50;3.00;99.90
77305;DHT22;66364;52.622;7.746;2023-03-05T04:07:51;3.10;99.90
77305;DHT22;66364;52.622;7.746;2023-03-05T04:09:52;3.00;99.90
77305;DHT22;66364;52.622;7.746;2023-03-05T04:11:52;2.90;99.90
77305;DHT22;66364;52.622;7.746;2023-03-05T04:13:53;3.00;99.90
77305;DHT22;66364;52.622;7.746;2023-03-05T04:15:54;2.90;99.90
77305;DHT22;66364;52.622;7.746;2023-03-05T04:18:15;2.70;99.90
77305;DHT22;66364;52.622;7.746;2023-03-05T04:20:16;2.30;99.90
77305;DHT22;66364;52.622;7.746;2023-03-05T04:22:17;2.80;99.90
77305;DHT22;66364;52.622;7.746;2023-03-05T04:24:18;2.70;99.90
77305;DHT22;66364;52.622;7.746;2023-03-05T04:26:18;2.30;99.90
77305;DHT22;66364;52.622;7.746;2023-03-05T04:28:19;2.80;99.90
77305;DHT22;66364;52.622;7.746;2023-03-05T04:30:20;3.00;99.90
77305;DHT22;66364;52.622;7.746;2023-03-05T04:32:21;2.70;99.90
77305;DHT22;66364;52.622;7.746;2023-03-05T04:34:21;2.80;99.90
77305;DHT22;66364;52.622;7.746;2023-03-05T04:36:22;2.30;99.90
77305;DHT22;66364;52.622;7.746;2023-03-05T04:38:22;2.70;99.90
77305;DHT22;66364;52.622;7.746;2023-03-05T04:40:23;2.60;99.90
77305;DHT22;66364;52.622;7.746;2023-03-05T04:42:24;2.80;99.90
77305;DHT22;66364;52.622;7.746;2023-03-05T04:44:25;3.10;99.90
77305;DHT22;66364;52.622;7.746;2023-03-05T04:46:25;2.80;99.90
77305;DHT22;66364;52.622;7.746;2023-03-05T04:48:26;2.70;99.90
77305;DHT22;66364;52.622;7.746;2023-03-05T04:50:27;2.80;99.90
77305;DHT22;66364;52.622;7.746;2023-03-05T04:52:27;2.80;99.90
77305;DHT22;66364;52.622;7.746;2023-03-05T04:54:28;2.80;99.90
77305;DHT22;66364;52.622;7.746;2023-03-05T04:56:29;2.70;99.90
77305;DHT22;66364;52.622;7.746;2023-03-05T04:58:29;2.70;99.90
77305;DHT22;66364;52.622;7.746;2023-03-05T05:00:30;2.90;99.90
77305;DHT22;66364;52.622;7.746;2023-03-05T05:02:31;2.80;99.90
77305;DHT22;66364;52.622;7.746;2023-03-05T05:04:32;2.80;99.90
77305;DHT22;66364;52.622;7.746;2023-03-05T05:06:33;3.00;99.90
77305;DHT22;66364;52.622;7.746;2023-03-05T05:08:34;2.80;99.90
77305;DHT22;66364;52.622;7.746;2023-03-05T05:10:35;2.90;99.90
77305;DHT22;66364;52.622;7.746;2023-03-05T05:12:36;2.90;99.90
77305;DHT22;66364;52.622;7.746;2023-03-05T05:14:36;3.10;99.90
77305;DHT22;66364;52.622;7.746;2023-03-05T05:16:37;3.00;99.90
77305;DHT22;66364;52.622;7.746;2023-03-05T05:18:38;3.20;99.90
77305;DHT22;66364;52.622;7.746;2023-03-05T05:20:39;2.90;99.90
77305;DHT22;66364;52.622;7.746;2023-03-05T05:22:39;3.30;99.90
77305;DHT22;66364;52.622;7.746;2023-03-05T05:24:40;3.00;99.90
77305;DHT22;66364;52.622;7.746;2023-03-05T05:26:41;2.90;99.90
77305;DHT22;66364;52.622;7.746;2023-03-05T05:28:42;3.10;99.90
77305;DHT22;66364;52.622;7.746;2023-03-05T05:30:43;2.70;99.90
77305;DHT22;66364;52.622;7.746;2023-03-05T05:32:44;2.80;99.90
77305;DHT22;66364;52.622;7.746;2023-03-05T05:34:44;2.80;99.90
77305;DHT22;66364;52.622;7.746;2023-03-05T05:36:45;3.00;99.90
77305;DHT22;66364;52.622;7.746;2023-03-05T05:38:46;3.00;99.90
77305;DHT22;66364;52.622;7.746;2023-03-05T05:40:46;3.00;99.90
77305;DHT22;66364;52.622;7.746;2023-03-05T05:42:47;2.90;99.90
77305;DHT22;66364;52.622;7.746;2023-03-05T05:44:48;2.80;99.90
77305;DHT22;66364;52.622;7.746;2023-03-05T05:46:49;3.10;99.90
77305;DHT22;66364;52.622;7.746;2023-03-05T05:48:49;3.00;99.90
77305;DHT22;66364;52.622;7.746;2023-03-05T05:50:50;3.20;99.90
77305;DHT22;66364;52.622;7.746;2023-03-05T05:52:51;3.10;99.90
77305;DHT22;66364;52.622;7.746;2023-03-05T05:54:51;3.00;99.90
77305;DHT22;66364;52.622;7.746;2023-03-05T05:56:52;3.00;99.90
77305;DHT22;66364;52.622;7.746;2023-03-05T05:58:53;3.00;99.90
77305;DHT22;66364;52.622;7.746;2023-03-05T06:00:54;2.80;99.90
77305;DHT22;66364;52.622;7.746;2023-03-05T06:02:54;2.90;99.90
77305;DHT22;66364;52.622;7.746;2023-03-05T06:04:55;2.80;99.90
77305;DHT22;66364;52.622;7.746;2023-03-05T06:06:57;2.80;99.90
77305;DHT22;66364;52.622;7.746;2023-03-05T06:08:58;3.10;99.90
77305;DHT22;66364;52.622;7.746;2023-03-05T06:11:01;2.70;99.90
77305;DHT22;66364;52.622;7.746;2023-03-05T06:13:01;2.70;99.90
77305;DHT22;66364;52.622;7.746;2023-03-05T06:15:02;2.70;99.90
77305;DHT22;66364;52.622;7.746;2023-03-05T06:17:03;2.80;99.90
77305;DHT22;66364;52.622;7.746;2023-03-05T06:19:04;2.90;99.90
77305;DHT22;66364;52.622;7.746;2023-03-05T06:21:08;2.90;99.90
77305;DHT22;66364;52.622;7.746;2023-03-05T06:23:10;2.80;99.90
77305;DHT22;66364;52.622;7.746;2023-03-05T06:25:11;2.70;99.90
77305;DHT22;66364;52.622;7.746;2023-03-05T06:27:15;2.80;99.90
77305;DHT22;66364;52.622;7.746;2023-03-05T06:29:16;2.90;99.90
77305;DHT22;66364;52.622;7.746;2023-03-05T06:31:20;2.90;99.90
77305;DHT22;66364;52.622;7.746;2023-03-05T06:33:21;2.90;99.90
77305;DHT22;66364;52.622;7.746;2023-03-05T06:35:21;2.90;99.90
77305;DHT22;66364;52.622;7.746;2023-03-05T06:37:22;2.70;99.90
77305;DHT22;66364;52.622;7.746;2023-03-05T06:39:22;2.90;99.90
77305;DHT22;66364;52.622;7.746;2023-03-05T06:41:28;2.60;99.90
77305;DHT22;66364;52.622;7.746;2023-03-05T06:43:32;2.90;99.90
77305;DHT22;66364;52.622;7.746;2023-03-05T06:45:32;2.60;99.90
77305;DHT22;66364;52.622;7.746;2023-03-05T06:47:33;2.90;99.90
77305;DHT22;66364;52.622;7.746;2023-03-05T06:49:34;3.00;99.90
77305;DHT22;66364;52.622;7.746;2023-03-05T06:51:39;2.90;99.90
77305;DHT22;66364;52.622;7.746;2023-03-05T06:53:40;3.10;99.90
77305;DHT22;66364;52.622;7.746;2023-03-05T06:55:40;3.00;99.90
77305;DHT22;66364;52.622;7.746;2023-03-05T06:57:41;3.00;99.90
77305;DHT22;66364;52.622;7.746;2023-03-05T06:59:42;2.40;99.90
77305;DHT22;66364;52.622;7.746;2023-03-05T07:01:43;3.00;99.90
77305;DHT22;66364;52.622;7.746;2023-03-05T07:03:45;3.00;99.90
77305;DHT22;66364;52.622;7.746;2023-03-05T07:05:47;2.90;99.90
77305;DHT22;66364;52.622;7.746;2023-03-05T07:07:47;3.00;99.90
77305;DHT22;66364;52.622;7.746;2023-03-05T07:09:48;3.10;99.90
77305;DHT22;66364;52.622;7.746;2023-03-05T07:11:48;3.10;99.90
77305;DHT22;66364;52.622;7.746;2023-03-05T07:13:50;3.10;99.90
77305;DHT22;66364;52.622;7.746;2023-03-05T07:15:50;2.80;99.90
77305;DHT22;66364;52.622;7.746;2023-03-05T07:17:57;3.20;99.90
77305;DHT22;66364;52.622;7.746;2023-03-05T07:19:58;2.50;99.90
77305;DHT22;66364;52.622;7.746;2023-03-05T07:21:58;3.00;99.90
77305;DHT22;66364;52.622;7.746;2023-03-05T07:24:00;3.00;99.90
77305;DHT22;66364;52.622;7.746;2023-03-05T07:26:04;3.00;99.90
77305;DHT22;66364;52.622;7.746;2023-03-05T07:28:05;3.10;99.90
77305;DHT22;66364;52.622;7.746;2023-03-05T07:30:06;3.50;99.90
77305;DHT22;66364;52.622;7.746;2023-03-05T07:32:07;3.30;99.90
77305;DHT22;66364;52.622;7.746;2023-03-05T07:34:08;3.60;99.90
77305;DHT22;66364;52.622;7.746;2023-03-05T07:36:10;3.40;99.90
77305;DHT22;66364;52.622;7.746;2023-03-05T07:38:11;3.70;99.90
77305;DHT22;66364;52.622;7.746;2023-03-05T07:40:12;3.60;99.90
77305;DHT22;66364;52.622;7.746;2023-03-05T07:42:12;3.60;99.90
77305;DHT22;66364;52.622;7.746;2023-03-05T07:44:13;3.30;99.90
77305;DHT22;66364;52.622;7.746;2023-03-05T07:46:17;3.40;99.90
77305;DHT22;66364;52.622;7.746;2023-03-05T07:48:18;3.40;99.90
77305;DHT22;66364;52.622;7.746;2023-03-05T07:50:19;3.40;99.90
77305;DHT22;66364;52.622;7.746;2023-03-05T07:52:20;3.80;99.90
77305;DHT22;66364;52.622;7.746;2023-03-05T07:54:21;3.50;99.90
77305;DHT22;66364;52.622;7.746;2023-03-05T07:56:30;3.70;99.90
77305;DHT22;66364;52.622;7.746;2023-03-05T07:58:34;3.70;99.90
77305;DHT22;66364;52.622;7.746;2023-03-05T08:00:34;3.50;99.90
77305;DHT22;66364;52.622;7.746;2023-03-05T08:02:35;3.50;99.90
77305;DHT22;66364;52.622;7.746;2023-03-05T08:04:36;3.50;99.90
77305;DHT22;66364;52.622;7.746;2023-03-05T08:06:40;3.70;99.90
77305;DHT22;66364;52.622;7.746;2023-03-05T08:08:41;3.60;99.90
77305;DHT22;66364;52.622;7.746;2023-03-05T08:10:44;3.80;99.90
77305;DHT22;66364;52.622;7.746;2023-03-05T08:12:45;3.90;99.90
77305;DHT22;66364;52.622;7.746;2023-03-05T08:14:46;3.60;99.90
77305;DHT22;66364;52.622;7.746;2023-03-05T08:16:46;3.60;99.90
77305;DHT22;66364;52.622;7.746;2023-03-05T08:18:47;3.80;99.90
77305;DHT22;66364;52.622;7.746;2023-03-05T08:20:48;4.10;99.90
77305;DHT22;66364;52.622;7.746;2023-03-05T08:23:10;4.00;99.90
77305;DHT22;66364;52.622;7.746;2023-03-05T08:25:18;4.00;99.90
77305;DHT22;66364;52.622;7.746;2023-03-05T08:27:19;4.00;99.90
77305;DHT22;66364;52.622;7.746;2023-03-05T08:29:20;3.80;99.90
77305;DHT22;66364;52.622;7.746;2023-03-05T08:31:22;3.90;99.90
77305;DHT22;66364;52.622;7.746;2023-03-05T08:33:26;4.10;99.90
77305;DHT22;66364;52.622;7.746;2023-03-05T08:35:27;3.90;99.90
77305;DHT22;66364;52.622;7.746;2023-03-05T08:37:27;4.20;99.90
77305;DHT22;66364;52.622;7.746;2023-03-05T08:39:28;4.10;99.90
77305;DHT22;66364;52.622;7.746;2023-03-05T08:41:29;4.20;99.90
77305;DHT22;66364;52.622;7.746;2023-03-05T08:43:29;4.40;99.90
77305;DHT22;66364;52.622;7.746;2023-03-05T08:45:30;4.90;99.90
77305;DHT22;66364;52.622;7.746;2023-03-05T08:47:31;5.10;99.90
77305;DHT22;66364;52.622;7.746;2023-03-05T08:49:32;5.50;99.90
77305;DHT22;66364;52.622;7.746;2023-03-05T08:51:54;5.30;99.90
77305;DHT22;66364;52.622;7.746;2023-03-05T08:54:00;5.80;99.90
77305;DHT22;66364;52.622;7.746;2023-03-05T08:56:01;6.00;99.90
77305;DHT22;66364;52.622;7.746;2023-03-05T08:58:14;6.60;99.90
77305;DHT22;66364;52.622;7.746;2023-03-05T09:00:19;6.10;99.90
77305;DHT22;66364;52.622;7.746;2023-03-05T09:02:29;6.10;99.90
77305;DHT22;66364;52.622;7.746;2023-03-05T09:04:30;5.90;99.90
77305;DHT22;66364;52.622;7.746;2023-03-05T09:06:43;6.10;99.90
77305;DHT22;66364;52.622;7.746;2023-03-05T09:08:50;5.80;99.90
77305;DHT22;66364;52.622;7.746;2023-03-05T09:11:05;5.60;99.90
77305;DHT22;66364;52.622;7.746;2023-03-05T09:13:13;6.20;99.90
77305;DHT22;66364;52.622;7.746;2023-03-05T09:15:27;6.40;99.90
77305;DHT22;66364;52.622;7.746;2023-03-05T09:20:04;6.70;99.90
77305;DHT22;66364;52.622;7.746;2023-03-05T09:22:05;6.80;99.90
77305;DHT22;66364;52.622;7.746;2023-03-05T09:24:06;6.90;99.90
77305;DHT22;66364;52.622;7.746;2023-03-05T09:26:09;6.30;99.90
77305;DHT22;66364;52.622;7.746;2023-03-05T09:28:11;6.40;99.90
77305;DHT22;66364;52.622;7.746;2023-03-05T09:30:12;6.20;99.90
77305;DHT22;66364;52.622;7.746;2023-03-05T09:32:13;6.20;99.90
77305;DHT22;66364;52.622;7.746;2023-03-05T09:34:14;6.70;99.90
77305;DHT22;66364;52.622;7.746;2023-03-05T09:36:18;7.00;99.90
77305;DHT22;66364;52.622;7.746;2023-03-05T09:38:18;7.00;99.90
77305;DHT22;66364;52.622;7.746;2023-03-05T09:40:20;7.30;99.90
77305;DHT22;66364;52.622;7.746;2023-03-05T09:42:43;6.90;99.90
77305;DHT22;66364;52.622;7.746;2023-03-05T09:45:02;6.90;99.90
77305;DHT22;66364;52.622;7.746;2023-03-05T09:49:29;6.90;99.90
77305;DHT22;66364;52.622;7.746;2023-03-05T09:51:34;7.30;99.90
77305;DHT22;66364;52.622;7.746;2023-03-05T09:54:22;8.00;99.90
77305;DHT22;66364;52.622;7.746;2023-03-05T09:56:13;7.90;99.90
77305;DHT22;66364;52.622;7.746;2023-03-05T10:00:38;6.80;99.90
77305;DHT22;66364;52.622;7.746;2023-03-05T10:02:43;7.30;99.90
77305;DHT22;66364;52.622;7.746;2023-03-05T10:05:03;7.50;99.90
77305;DHT22;66364;52.622;7.746;2023-03-05T10:11:28;7.20;99.90
77305;DHT22;66364;52.622;7.746;2023-03-05T10:13:39;7.00;99.90
77305;DHT22;66364;52.622;7.746;2023-03-05T10:15:48;6.70;99.90
77305;DHT22;66364;52.622;7.746;2023-03-05T10:21:04;7.00;99.90
77305;DHT22;66364;52.622;7.746;2023-03-05T10:28:08;8.70;90.60
77305;DHT22;66364;52.622;7.746;2023-03-05T10:37:36;9.90;93.20
77305;DHT22;66364;52.622;7.746;2023-03-05T10:42:22;8.50;77.80
77305;DHT22;66364;52.622;7.746;2023-03-05T10:44:32;8.30;85.70
77305;DHT22;66364;52.622;7.746;2023-03-05T10:46:32;7.60;88.00
77305;DHT22;66364;52.622;7.746;2023-03-05T10:48:37;7.00;94.80
77305;DHT22;66364;52.622;7.746;2023-03-05T10:50:41;6.70;97.20
77305;DHT22;66364;52.622;7.746;2023-03-05T10:52:43;6.50;99.80
77305;DHT22;66364;52.622;7.746;2023-03-05T10:54:53;7.40;99.90
77305;DHT22;66364;52.622;7.746;2023-03-05T10:57:18;8.80;92.20
77305;DHT22;66364;52.622;7.746;2023-03-05T10:59:18;9.50;79.20
77305;DHT22;66364;52.622;7.746;2023-03-05T11:01:28;10.20;79.00
77305;DHT22;66364;52.622;7.746;2023-03-05T11:03:51;10.00;72.10
77305;DHT22;66364;52.622;7.746;2023-03-05T11:06:00;9.00;74.40
77305;DHT22;66364;52.622;7.746;2023-03-05T11:08:27;8.50;81.90
77305;DHT22;66364;52.622;7.746;2023-03-05T11:10:44;8.00;78.50
77305;DHT22;66364;52.622;7.746;2023-03-05T11:12:44;8.30;77.10
77305;DHT22;66364;52.622;7.746;2023-03-05T11:17:27;8.00;88.80
77305;DHT22;66364;52.622;7.746;2023-03-05T11:19:32;8.90;74.90
77305;DHT22;66364;52.622;7.746;2023-03-05T11:21:33;9.60;71.50
77305;DHT22;66364;52.622;7.746;2023-03-05T11:23:34;9.50;71.90
77305;DHT22;66364;52.622;7.746;2023-03-05T11:27:57;8.50;80.70
77305;DHT22;66364;52.622;7.746;2023-03-05T11:29:59;7.60;79.60
77305;DHT22;66364;52.622;7.746;2023-03-05T11:34:38;7.40;84.90
77305;DHT22;66364;52.622;7.746;2023-03-05T11:36:58;7.40;81.80
77305;DHT22;66364;52.622;7.746;2023-03-05T11:39:09;7.70;79.10
77305;DHT22;66364;52.622;7.746;2023-03-05T11:41:11;8.00;73.10
77305;DHT22;66364;52.622;7.746;2023-03-05T11:43:21;8.30;73.20
77305;DHT22;66364;52.622;7.746;2023-03-05T11:45:22;8.60;72.40
77305;DHT22;66364;52.622;7.746;2023-03-05T11:47:33;8.60;72.30
77305;DHT22;66364;52.622;7.746;2023-03-05T11:49:32;8.70;74.90
77305;DHT22;66364;52.622;7.746;2023-03-05T11:51:44;8.30;71.70
77305;DHT22;66364;52.622;7.746;2023-03-05T11:53:49;8.00;72.40
77305;DHT22;66364;52.622;7.746;2023-03-05T11:55:53;7.60;73.20
77305;DHT22;66364;52.622;7.746;2023-03-05T12:00:20;8.60;71.50
77305;DHT22;66364;52.622;7.746;2023-03-05T12:02:23;8.10;72.60
77305;DHT22;66364;52.622;7.746;2023-03-05T12:04:36;8.50;65.10
77305;DHT22;66364;52.622;7.746;2023-03-05T12:06:40;8.20;70.00
77305;DHT22;66364;52.622;7.746;2023-03-05T12:08:45;8.00;65.20
77305;DHT22;66364;52.622;7.746;2023-03-05T12:10:46;7.60;68.90
77305;DHT22;66364;52.622;7.746;2023-03-05T12:17:33;7.40;69.30
77305;DHT22;66364;52.622;7.746;2023-03-05T12:19:46;7.10;74.60
77305;DHT22;66364;52.622;7.746;2023-03-05T12:21:49;6.70;88.10
77305;DHT22;66364;52.622;7.746;2023-03-05T12:23:56;6.60;99.90
77305;DHT22;66364;52.622;7.746;2023-03-05T12:25:57;6.30;99.90
77305;DHT22;66364;52.622;7.746;2023-03-05T12:27:59;6.40;99.90
77305;DHT22;66364;52.622;7.746;2023-03-05T12:30:00;6.10;99.90
77305;DHT22;66364;52.622;7.746;2023-03-05T12:32:02;6.40;99.90
77305;DHT22;66364;52.622;7.746;2023-03-05T12:36:37;8.00;99.90
77305;DHT22;66364;52.622;7.746;2023-03-05T12:38:37;7.70;99.90
77305;DHT22;66364;52.622;7.746;2023-03-05T12:40:38;7.30;99.90
77305;DHT22;66364;52.622;7.746;2023-03-05T12:44:43;8.20;99.90
77305;DHT22;66364;52.622;7.746;2023-03-05T12:46:45;8.30;99.90
77305;DHT22;66364;52.622;7.746;2023-03-05T12:48:47;8.30;99.90
77305;DHT22;66364;52.622;7.746;2023-03-05T12:50:48;8.40;99.90
77305;DHT22;66364;52.622;7.746;2023-03-05T12:52:49;8.90;99.90
77305;DHT22;66364;52.622;7.746;2023-03-05T12:55:00;9.10;99.90
77305;DHT22;66364;52.622;7.746;2023-03-05T12:57:03;8.70;99.90
77305;DHT22;66364;52.622;7.746;2023-03-05T12:59:04;7.90;99.90
77305;DHT22;66364;52.622;7.746;2023-03-05T13:03:28;7.60;97.30
77305;DHT22;66364;52.622;7.746;2023-03-05T13:05:32;7.40;99.90
77305;DHT22;66364;52.622;7.746;2023-03-05T13:07:33;7.50;99.90
77305;DHT22;66364;52.622;7.746;2023-03-05T13:09:33;7.50;99.90
77305;DHT22;66364;52.622;7.746;2023-03-05T13:11:36;7.60;99.90
77305;DHT22;66364;52.622;7.746;2023-03-05T13:13:43;7.70;99.90
77305;DHT22;66364;52.622;7.746;2023-03-05T13:15:50;7.40;99.90
77305;DHT22;66364;52.622;7.746;2023-03-05T13:19:56;7.60;99.90
77305;DHT22;66364;52.622;7.746;2023-03-05T13:22:02;7.70;99.90
77305;DHT22;66364;52.622;7.746;2023-03-05T13:24:12;7.30;99.90
77305;DHT22;66364;52.622;7.746;2023-03-05T13:28:41;6.40;99.90
77305;DHT22;66364;52.622;7.746;2023-03-05T13:30:44;5.50;99.90
77305;DHT22;66364;52.622;7.746;2023-03-05T13:32:49;6.10;99.90
77305;DHT22;66364;52.622;7.746;2023-03-05T13:34:53;6.40;99.90
77305;DHT22;66364;52.622;7.746;2023-03-05T13:37:17;6.50;99.90
77305;DHT22;66364;52.622;7.746;2023-03-05T13:39:28;6.70;99.90
77305;DHT22;66364;52.622;7.746;2023-03-05T13:41:29;6.50;99.90
77305;DHT22;66364;52.622;7.746;2023-03-05T13:43:30;7.00;99.90
77305;DHT22;66364;52.622;7.746;2023-03-05T13:45:31;7.30;99.90
77305;DHT22;66364;52.622;7.746;2023-03-05T13:47:35;7.40;99.90
77305;DHT22;66364;52.622;7.746;2023-03-05T13:49:36;7.80;99.90
77305;DHT22;66364;52.622;7.746;2023-03-05T13:51:45;7.50;99.90
77305;DHT22;66364;52.622;7.746;2023-03-05T13:53:47;7.90;99.90
77305;DHT22;66364;52.622;7.746;2023-03-05T13:55:50;8.50;99.90
77305;DHT22;66364;52.622;7.746;2023-03-05T13:57:51;8.90;99.90
77305;DHT22;66364;52.622;7.746;2023-03-05T13:59:53;9.20;98.10
77305;DHT22;66364;52.622;7.746;2023-03-05T14:01:58;8.90;90.80
77305;DHT22;66364;52.622;7.746;2023-03-05T14:04:06;9.60;90.30
77305;DHT22;66364;52.622;7.746;2023-03-05T14:06:09;9.10;84.40
77305;DHT22;66364;52.622;7.746;2023-03-05T14:08:22;9.50;83.60